createdAt,value
2022-10-14T00:02:24.069Z,19.14
2022-10-14T00:04:51.049Z,19.11
2022-10-14T00:07:17.735Z,19.09
2022-10-14T00:09:44.472Z,19.16
2022-10-14T00:12:11.267Z,19.16
2022-10-14T00:14:39.615Z,19.13
2022-10-14T00:17:06.389Z,19.28
2022-10-14T00:19:33.333Z,19.20
2022-10-14T00:22:00.031Z,19.23
2022-10-14T00:24:26.829Z,19.31
2022-10-14T00:26:53.567Z,19.27
2022-10-14T00:29:20.415Z,18.99
2022-10-14T00:31:47.899Z,19.18
2022-10-14T00:34:16.217Z,19.17
2022-10-14T00:36:43.907Z,19.36
2022-10-14T00:39:11.045Z,19.28
2022-10-14T00:41:38.066Z,19.20
2022-10-14T00:44:06.479Z,19.20
2022-10-14T00:46:36.194Z,19.24
2022-10-14T00:49:43.463Z,19.22
2022-10-14T00:52:19.358Z,19.19
2022-10-14T00:55:12.929Z,19.19
2022-10-14T00:57:39.776Z,19.10
2022-10-14T01:00:19.443Z,18.90
2022-10-14T01:02:48.098Z,19.03
2022-10-14T01:05:17.099Z,19.16
2022-10-14T01:07:54.532Z,19.04
2022-10-14T01:10:57.318Z,19.06
2022-10-14T01:13:33.832Z,19.03
2022-10-14T01:16:06.634Z,18.97
2022-10-14T01:18:55.599Z,18.90
2022-10-14T01:21:31.068Z,18.94
2022-10-14T01:24:05.627Z,18.92
2022-10-14T01:26:50.944Z,18.89
2022-10-14T01:29:26.648Z,18.86
2022-10-14T01:32:10.829Z,18.83
2022-10-14T01:34:45.228Z,18.86
2022-10-14T01:37:17.952Z,18.87
2022-10-14T01:39:56.821Z,18.82
2022-10-14T01:42:28.457Z,18.78
2022-10-14T01:45:09.192Z,18.64
2022-10-14T01:47:38.666Z,18.72
2022-10-14T01:50:13.109Z,18.73
2022-10-14T01:52:48.677Z,18.66
2022-10-14T01:55:20.320Z,18.40
2022-10-14T01:57:51.105Z,18.58
2022-10-14T02:00:18.023Z,18.77
2022-10-14T02:02:44.799Z,18.48
2022-10-14T02:05:41.379Z,18.77
2022-10-14T02:08:19.891Z,18.82
2022-10-14T02:11:05.407Z,18.77
2022-10-14T02:13:56.460Z,18.74
2022-10-14T02:16:48.587Z,18.65
2022-10-14T02:19:18.727Z,18.72
2022-10-14T02:22:02.417Z,18.61
2022-10-14T02:24:34.340Z,18.67
2022-10-14T02:27:07.130Z,18.56
2022-10-14T02:29:36.427Z,18.41
2022-10-14T02:32:06.774Z,18.63
2022-10-14T02:34:39.601Z,18.70
2022-10-14T02:37:07.591Z,18.80
2022-10-14T02:39:42.515Z,18.66
2022-10-14T02:42:09.254Z,18.37
2022-10-14T02:44:36.053Z,18.75
2022-10-14T02:47:02.984Z,18.76
2022-10-14T02:49:29.835Z,18.78
2022-10-14T02:51:56.540Z,18.73
2022-10-14T02:54:23.332Z,18.77
2022-10-14T02:56:50.022Z,18.74
2022-10-14T02:59:16.699Z,18.67
2022-10-14T03:01:43.603Z,18.80
2022-10-14T03:04:10.287Z,18.70
2022-10-14T03:06:36.985Z,18.80
2022-10-14T03:09:03.912Z,18.83
2022-10-14T03:11:30.596Z,18.73
2022-10-14T03:13:57.264Z,18.79
2022-10-14T03:16:24.069Z,18.82
2022-10-14T03:18:50.809Z,18.82
2022-10-14T03:21:17.485Z,18.80
2022-10-14T03:23:44.429Z,18.39
2022-10-14T03:26:14.032Z,18.62
2022-10-14T03:28:41.098Z,18.64
2022-10-14T03:31:08.127Z,18.67
2022-10-14T03:33:34.852Z,18.61
2022-10-14T03:36:01.696Z,18.58
2022-10-14T03:38:28.617Z,18.48
2022-10-14T03:40:55.344Z,18.02
2022-10-14T03:43:22.122Z,18.38
2022-10-14T03:45:48.860Z,18.28
2022-10-14T03:48:15.565Z,18.38
2022-10-14T03:50:42.300Z,18.26
2022-10-14T03:53:09.148Z,18.30
2022-10-14T03:55:36.024Z,18.19
2022-10-14T03:58:02.816Z,18.21
2022-10-14T04:00:29.911Z,18.23
2022-10-14T04:02:56.672Z,18.17
2022-10-14T04:05:23.433Z,18.14
2022-10-14T04:07:50.501Z,18.07
2022-10-14T04:10:17.425Z,17.75
2022-10-14T04:12:44.147Z,17.98
2022-10-14T04:15:11.118Z,17.96
2022-10-14T04:17:37.824Z,18.07
2022-10-14T04:20:05.168Z,18.07
2022-10-14T04:22:33.481Z,18.20
2022-10-14T04:25:11.588Z,18.27
2022-10-14T04:27:38.488Z,18.10
2022-10-14T04:30:06.661Z,18.30
2022-10-14T04:32:33.381Z,18.27
2022-10-14T04:35:00.232Z,17.92
2022-10-14T04:37:26.950Z,18.29
2022-10-14T04:39:53.709Z,18.30
2022-10-14T04:42:20.890Z,18.28
2022-10-14T04:44:47.811Z,18.29
2022-10-14T04:47:14.509Z,18.29
2022-10-14T04:49:41.389Z,18.37
2022-10-14T04:52:08.155Z,18.28
2022-10-14T04:54:34.825Z,18.04
2022-10-14T04:57:01.759Z,18.10
2022-10-14T04:59:28.449Z,17.65
2022-10-14T05:01:55.174Z,18.22
2022-10-14T05:04:22.257Z,18.18
2022-10-14T05:06:49.216Z,18.14
2022-10-14T05:09:16.043Z,17.95
2022-10-14T05:11:42.836Z,17.99
2022-10-14T05:14:09.716Z,17.88
2022-10-14T05:16:36.920Z,17.72
2022-10-14T05:19:03.804Z,17.76
2022-10-14T05:21:30.494Z,17.62
2022-10-14T05:23:57.206Z,17.45
2022-10-14T05:26:24.057Z,17.25
2022-10-14T05:28:52.624Z,17.27
2022-10-14T05:31:19.407Z,17.30
2022-10-14T05:33:46.245Z,17.04
2022-10-14T05:36:12.929Z,17.53
2022-10-14T05:38:39.632Z,17.61
2022-10-14T05:41:06.525Z,17.50
2022-10-14T05:43:33.295Z,17.25
2022-10-14T05:46:01.074Z,17.22
2022-10-14T05:48:28.017Z,17.42
2022-10-14T05:50:54.717Z,17.29
2022-10-14T05:53:21.472Z,17.45
2022-10-14T05:55:48.676Z,17.63
2022-10-14T05:58:15.753Z,17.64
2022-10-14T06:00:42.513Z,17.39
2022-10-14T06:03:12.477Z,17.12
2022-10-14T06:05:39.048Z,17.38
2022-10-14T06:08:06.253Z,17.37
2022-10-14T06:10:33.224Z,17.15
2022-10-14T06:12:59.904Z,17.05
2022-10-14T06:15:28.434Z,16.89
2022-10-14T06:17:55.319Z,16.91
2022-10-14T06:20:22.167Z,16.78
2022-10-14T06:22:48.851Z,16.59
2022-10-14T06:25:15.896Z,16.76
2022-10-14T06:27:42.721Z,16.54
2022-10-14T06:30:10.276Z,16.81
2022-10-14T06:32:37.103Z,16.66
2022-10-14T06:35:04.572Z,16.61
2022-10-14T06:37:31.298Z,16.73
2022-10-14T06:39:58.056Z,16.78
2022-10-14T06:42:25.181Z,16.88
2022-10-14T06:44:52.235Z,16.94
2022-10-14T06:47:19.264Z,17.11
2022-10-14T06:49:45.963Z,17.11
2022-10-14T06:52:12.729Z,17.07
2022-10-14T06:54:40.999Z,17.37
2022-10-14T06:57:09.413Z,17.39
2022-10-14T06:59:36.117Z,17.35
2022-10-14T07:02:02.985Z,17.39
2022-10-14T07:04:29.803Z,17.26
2022-10-14T07:06:58.479Z,17.50
2022-10-14T07:09:25.493Z,17.55
2022-10-14T07:11:52.208Z,17.65
2022-10-14T07:14:18.981Z,17.59
2022-10-14T07:16:46.319Z,17.81
2022-10-14T07:19:13.275Z,17.74
2022-10-14T07:21:40.088Z,17.57
2022-10-14T07:24:07.149Z,17.69
2022-10-14T07:26:33.876Z,17.94
2022-10-14T07:29:01.153Z,17.96
2022-10-14T07:31:28.205Z,18.03
2022-10-14T07:33:54.923Z,18.16
2022-10-14T07:36:22.762Z,18.01
2022-10-14T07:38:50.256Z,18.15
2022-10-14T07:41:20.859Z,18.30
2022-10-14T07:43:50.235Z,18.18
2022-10-14T07:46:28.562Z,18.37
2022-10-14T07:49:09.051Z,18.44
2022-10-14T07:51:36.586Z,18.50
2022-10-14T07:54:05.435Z,18.49
2022-10-14T07:56:32.358Z,18.52
2022-10-14T07:58:59.269Z,18.65
2022-10-14T08:01:26.002Z,18.61
2022-10-14T08:03:53.562Z,18.60
2022-10-14T08:06:20.394Z,18.30
2022-10-14T08:08:47.825Z,18.59
2022-10-14T08:11:25.842Z,18.58
2022-10-14T08:13:54.167Z,18.66
2022-10-14T08:16:30.225Z,18.64
2022-10-14T08:18:59.757Z,18.68
2022-10-14T08:21:26.636Z,18.70
2022-10-14T08:23:55.213Z,18.81
2022-10-14T08:26:27.165Z,18.97
2022-10-14T08:28:54.143Z,18.83
2022-10-14T08:31:21.788Z,19.00
2022-10-14T08:33:49.478Z,19.07
2022-10-14T08:36:18.275Z,19.04
2022-10-14T08:38:46.534Z,18.93
2022-10-14T08:41:13.166Z,19.24
2022-10-14T08:44:08.192Z,19.44
2022-10-14T08:46:51.090Z,19.39
2022-10-14T08:49:31.019Z,19.68
2022-10-14T08:52:19.264Z,19.84
2022-10-14T08:54:55.870Z,19.86
2022-10-14T08:57:27.216Z,20.11
2022-10-14T08:59:54.630Z,20.19
2022-10-14T09:02:50.951Z,20.29
2022-10-14T09:05:21.989Z,20.39
2022-10-14T09:10:34.949Z,21.20
2022-10-14T09:13:32.700Z,21.50
2022-10-14T09:16:33.232Z,21.85
2022-10-14T09:19:03.037Z,22.10
2022-10-14T09:21:34.195Z,22.30
2022-10-14T09:24:26.655Z,22.58
2022-10-14T09:27:01.107Z,22.73
2022-10-14T09:29:43.348Z,22.81
2022-10-14T09:32:15.773Z,22.81
2022-10-14T09:34:47.903Z,23.41
2022-10-14T09:37:34.068Z,23.81
2022-10-14T09:40:09.945Z,24.30
2022-10-14T09:43:01.838Z,24.86
2022-10-14T09:45:46.054Z,25.45
2022-10-14T09:48:22.093Z,26.16
2022-10-14T09:50:52.114Z,26.61
2022-10-14T09:53:49.216Z,27.04
2022-10-14T09:56:18.913Z,27.37
2022-10-14T09:58:55.436Z,27.51
2022-10-14T10:01:25.395Z,27.40
2022-10-14T10:03:53.446Z,27.39
2022-10-14T10:06:23.699Z,27.32
2022-10-14T10:08:53.559Z,27.29
2022-10-14T10:11:40.641Z,27.17
2022-10-14T10:14:16.943Z,27.90
2022-10-14T10:16:43.872Z,28.58
2022-10-14T10:19:32.580Z,29.27
2022-10-14T10:25:10.265Z,30.89
2022-10-14T10:27:49.546Z,31.38
2022-10-14T10:30:22.119Z,31.95
2022-10-14T10:33:00.142Z,32.39
2022-10-14T10:35:49.049Z,32.72
2022-10-14T10:38:21.992Z,32.90
2022-10-14T10:41:12.580Z,32.90
2022-10-14T10:43:54.407Z,32.22
2022-10-14T10:46:51.850Z,32.20
2022-10-14T10:49:42.150Z,32.26
2022-10-14T10:52:16.160Z,32.16
2022-10-14T10:55:11.761Z,31.47
2022-10-14T10:58:09.852Z,30.52
2022-10-14T11:00:52.892Z,29.66
2022-10-14T11:03:31.707Z,29.24
2022-10-14T11:06:50.112Z,28.57
2022-10-14T11:09:53.173Z,28.13
2022-10-14T11:12:34.680Z,27.96
2022-10-14T11:15:19.915Z,28.00
2022-10-14T11:18:07.440Z,27.67
2022-10-14T11:20:52.363Z,27.47
2022-10-14T11:23:38.258Z,27.52
2022-10-14T11:26:14.067Z,28.10
2022-10-14T11:28:57.030Z,29.40
2022-10-14T11:31:29.597Z,30.81
2022-10-14T11:34:11.397Z,32.03
2022-10-14T11:36:50.201Z,32.41
2022-10-14T11:39:35.555Z,32.36
2022-10-14T11:42:21.145Z,31.48
2022-10-14T11:44:59.022Z,30.66
2022-10-14T11:47:32.017Z,30.21
2022-10-14T11:50:19.066Z,30.15
2022-10-14T11:53:06.081Z,30.97
2022-10-14T11:55:39.542Z,31.15
2022-10-14T11:58:20.542Z,31.86
2022-10-14T12:00:53.873Z,32.27
2022-10-14T12:03:26.813Z,32.40
2022-10-14T12:06:04.378Z,31.83
2022-10-14T12:08:33.264Z,32.07
2022-10-14T12:11:18.559Z,33.12
2022-10-14T12:13:52.617Z,32.02
2022-10-14T12:16:22.577Z,31.62
2022-10-14T12:18:53.611Z,32.84
2022-10-14T12:21:32.280Z,34.30
2022-10-14T12:23:59.042Z,35.38
2022-10-14T12:26:25.843Z,36.29
2022-10-14T12:28:54.554Z,36.99
2022-10-14T12:31:28.948Z,37.31
2022-10-14T12:34:10.860Z,35.18
2022-10-14T12:36:39.112Z,33.34
2022-10-14T12:39:18.073Z,32.06
2022-10-14T12:41:55.645Z,33.24
2022-10-14T12:44:25.961Z,33.73
2022-10-14T12:46:53.971Z,33.84
2022-10-14T12:49:34.086Z,33.00
2022-10-14T12:52:04.841Z,32.50
2022-10-14T12:54:33.079Z,33.18
2022-10-14T12:57:06.307Z,34.66
2022-10-14T12:59:39.144Z,36.10
2022-10-14T13:02:57.313Z,36.89
2022-10-14T13:05:33.785Z,37.35
2022-10-14T13:08:16.189Z,37.50
2022-10-14T13:10:47.347Z,36.24
2022-10-14T13:13:39.117Z,34.52
2022-10-14T13:16:09.772Z,33.28
2022-10-14T13:18:49.900Z,32.17
2022-10-14T13:21:34.559Z,31.33
2022-10-14T13:24:18.061Z,30.39
2022-10-14T13:26:53.674Z,29.55
2022-10-14T13:29:20.480Z,29.09
2022-10-14T13:32:08.001Z,28.47
2022-10-14T13:35:06.589Z,28.03
2022-10-14T13:37:38.788Z,27.65
2022-10-14T13:40:21.060Z,27.27
2022-10-14T13:42:52.314Z,26.89
2022-10-14T13:45:22.411Z,26.64
2022-10-14T13:47:50.136Z,26.55
2022-10-14T13:50:23.905Z,26.40
2022-10-14T13:53:00.135Z,26.20
2022-10-14T13:55:27.597Z,26.12
2022-10-14T13:58:13.665Z,25.87
2022-10-14T14:01:00.636Z,25.65
2022-10-14T14:03:38.827Z,25.47
2022-10-14T14:06:17.315Z,25.46
2022-10-14T14:08:48.862Z,25.23
2022-10-14T14:11:37.679Z,25.07
2022-10-14T14:14:16.529Z,25.02
2022-10-14T14:16:55.031Z,24.85
2022-10-14T14:19:26.203Z,24.92
2022-10-14T14:22:27.376Z,24.88
2022-10-14T14:25:33.435Z,24.81
2022-10-14T14:28:06.143Z,24.79
2022-10-14T14:30:35.798Z,24.63
2022-10-14T14:33:08.370Z,24.47
2022-10-14T14:35:35.122Z,24.53
2022-10-14T14:38:02.134Z,24.07
2022-10-14T14:40:31.220Z,24.35
2022-10-14T14:43:02.997Z,24.20
2022-10-14T14:45:35.264Z,24.31
2022-10-14T14:48:05.037Z,24.38
2022-10-14T14:50:38.271Z,24.32
2022-10-14T14:53:11.972Z,24.35
2022-10-14T14:55:54.187Z,24.32
2022-10-14T14:58:24.089Z,24.19
2022-10-14T15:00:51.842Z,24.19
2022-10-14T15:03:18.856Z,24.17
2022-10-14T15:05:55.488Z,24.06
2022-10-14T15:08:25.149Z,23.97
2022-10-14T15:10:53.365Z,23.89
2022-10-14T15:13:45.249Z,23.77
2022-10-14T15:16:12.287Z,23.85
2022-10-14T15:18:41.220Z,23.70
2022-10-14T15:21:20.390Z,23.76
2022-10-14T15:23:50.071Z,23.97
2022-10-14T15:26:21.783Z,23.76
2022-10-14T15:29:08.367Z,23.53
2022-10-14T15:31:37.109Z,23.24
2022-10-14T15:34:04.885Z,23.53
2022-10-14T15:36:35.058Z,23.48
2022-10-14T15:39:02.828Z,23.56
2022-10-14T15:41:29.597Z,23.62
2022-10-14T15:43:56.446Z,23.70
2022-10-14T15:46:41.952Z,23.60
2022-10-14T15:49:18.649Z,23.71
2022-10-14T15:51:45.443Z,23.51
2022-10-14T15:54:12.747Z,23.48
2022-10-14T15:56:39.546Z,23.61
2022-10-14T15:59:06.404Z,23.33
2022-10-14T16:01:36.736Z,23.53
2022-10-14T16:04:04.068Z,23.40
2022-10-14T16:06:32.839Z,23.50
2022-10-14T16:08:59.567Z,23.41
2022-10-14T16:11:28.321Z,23.46
2022-10-14T16:13:55.407Z,23.50
2022-10-14T16:16:32.396Z,23.46
2022-10-14T16:19:02.679Z,23.14
2022-10-14T16:21:33.407Z,23.51
2022-10-14T16:24:02.481Z,23.42
2022-10-14T16:26:30.120Z,23.41
2022-10-14T16:28:57.319Z,23.45
2022-10-14T16:31:24.152Z,23.36
2022-10-14T16:33:51.638Z,23.47
2022-10-14T16:36:18.489Z,23.33
2022-10-14T16:38:45.465Z,22.93
2022-10-14T16:41:12.689Z,23.45
2022-10-14T16:43:39.704Z,23.37
2022-10-14T16:46:10.416Z,23.39
2022-10-14T16:48:40.178Z,23.39
2022-10-14T16:51:07.524Z,23.34
2022-10-14T16:53:48.850Z,23.19
2022-10-14T16:56:36.761Z,23.28
2022-10-14T16:59:05.282Z,23.24
2022-10-14T17:01:32.418Z,23.17
2022-10-14T17:03:59.323Z,23.24
2022-10-14T17:06:26.615Z,23.01
2022-10-14T17:08:53.846Z,23.10
2022-10-14T17:11:21.084Z,23.04
2022-10-14T17:13:51.943Z,22.71
2022-10-14T17:16:18.756Z,22.98
2022-10-14T17:18:45.767Z,22.84
2022-10-14T17:21:13.710Z,22.67
2022-10-14T17:23:42.467Z,22.79
2022-10-14T17:26:13.532Z,22.67
2022-10-14T17:28:41.426Z,22.75
2022-10-14T17:31:17.436Z,22.51
2022-10-14T17:33:44.205Z,22.60
2022-10-14T17:36:20.080Z,22.57
2022-10-14T17:38:48.380Z,22.52
2022-10-14T17:41:15.512Z,22.48
2022-10-14T17:43:42.386Z,22.40
2022-10-14T17:46:13.948Z,22.31
2022-10-14T17:48:42.796Z,22.08
2022-10-14T17:51:13.156Z,22.13
2022-10-14T17:53:40.524Z,22.10
2022-10-14T17:56:11.865Z,22.06
2022-10-14T17:58:39.235Z,21.91
2022-10-14T18:01:11.542Z,21.98
2022-10-14T18:03:42.589Z,21.79
2022-10-14T18:06:10.470Z,21.84
2022-10-14T18:08:37.462Z,21.50
2022-10-14T18:11:10.775Z,21.80
2022-10-14T18:16:13.429Z,21.63
2022-10-14T18:18:42.102Z,21.52
2022-10-14T18:21:10.302Z,21.29
2022-10-14T18:23:39.304Z,21.33
2022-10-14T18:26:14.670Z,21.20
2022-10-14T18:28:43.761Z,21.12
2022-10-14T18:31:18.252Z,21.00
2022-10-14T18:33:46.161Z,20.81
2022-10-14T18:36:16.017Z,20.79
2022-10-14T18:38:42.915Z,20.77
2022-10-14T18:41:14.447Z,20.74
2022-10-14T18:43:41.739Z,20.50
2022-10-14T18:46:19.535Z,20.58
2022-10-14T18:48:52.164Z,20.47
2022-10-14T18:51:25.748Z,20.50
2022-10-14T18:53:55.250Z,20.40
2022-10-14T18:56:28.114Z,20.29
2022-10-14T18:59:01.083Z,20.23
2022-10-14T19:01:29.353Z,20.22
2022-10-14T19:03:56.668Z,20.22
2022-10-14T19:06:24.225Z,20.23
2022-10-14T19:08:52.182Z,20.24
2022-10-14T19:11:21.698Z,20.19
2022-10-14T19:13:50.451Z,20.02
2022-10-14T19:16:19.941Z,20.18
2022-10-14T19:18:47.416Z,20.11
2022-10-14T19:21:16.090Z,20.06
2022-10-14T19:23:43.975Z,20.00
2022-10-14T19:26:22.030Z,19.75
2022-10-14T19:28:50.096Z,19.93
2022-10-14T19:31:20.889Z,19.74
2022-10-14T19:33:48.132Z,19.88
2022-10-14T19:36:16.783Z,19.92
2022-10-14T19:38:51.165Z,19.88
2022-10-14T19:41:18.748Z,19.88
2022-10-14T19:43:45.559Z,19.79
2022-10-14T19:46:14.058Z,19.86
2022-10-14T19:48:41.877Z,19.83
2022-10-14T19:51:11.707Z,19.80
2022-10-14T19:53:39.248Z,19.77
2022-10-14T19:56:11.493Z,19.74
2022-10-14T19:58:42.322Z,19.63
2022-10-14T20:01:14.192Z,19.73
2022-10-14T20:03:41.847Z,19.72
2022-10-14T20:06:10.224Z,19.74
2022-10-14T20:08:38.188Z,19.74
2022-10-14T20:11:07.628Z,19.71
2022-10-14T20:13:34.776Z,19.52
2022-10-14T20:16:02.511Z,19.46
2022-10-14T20:18:29.932Z,19.49
2022-10-14T20:20:57.383Z,19.47
2022-10-14T20:23:25.420Z,19.24
2022-10-14T20:25:52.335Z,19.23
2022-10-14T20:28:19.902Z,19.23
2022-10-14T20:30:47.551Z,19.27
2022-10-14T20:33:14.865Z,19.42
2022-10-14T20:35:41.681Z,19.29
2022-10-14T20:38:08.676Z,19.12
2022-10-14T20:40:36.136Z,19.18
2022-10-14T20:43:04.019Z,19.23
2022-10-14T20:45:30.999Z,19.21
2022-10-14T20:47:57.757Z,19.18
2022-10-14T20:50:24.532Z,19.16
2022-10-14T20:52:51.350Z,19.29
2022-10-14T20:55:18.087Z,19.27
2022-10-14T20:57:44.809Z,19.10
2022-10-14T21:00:12.185Z,19.19
2022-10-14T21:02:39.112Z,19.27
2022-10-14T21:05:06.316Z,19.18
2022-10-14T21:07:33.160Z,19.12
2022-10-14T21:09:59.851Z,19.22
2022-10-14T21:12:26.704Z,19.22
2022-10-14T21:14:53.594Z,18.84
2022-10-14T21:17:20.288Z,19.08
2022-10-14T21:19:49.064Z,19.09
2022-10-14T21:22:15.902Z,18.97
2022-10-14T21:24:42.786Z,19.06
2022-10-14T21:27:09.562Z,18.90
2022-10-14T21:29:36.383Z,19.09
2022-10-14T21:32:05.216Z,18.90
2022-10-14T21:34:31.954Z,19.04
2022-10-14T21:36:58.813Z,19.00
2022-10-14T21:39:25.603Z,18.97
2022-10-14T21:41:52.753Z,19.01
2022-10-14T21:44:21.202Z,19.00
2022-10-14T21:46:48.970Z,18.97
2022-10-14T21:49:16.090Z,19.05
2022-10-14T21:51:42.970Z,18.93
2022-10-14T21:54:12.360Z,18.91
2022-10-14T21:56:40.737Z,19.05
2022-10-14T21:59:07.803Z,19.04
2022-10-14T22:01:34.922Z,18.93
2022-10-14T22:04:04.900Z,19.00
2022-10-14T22:06:34.965Z,18.87
2022-10-14T22:09:03.547Z,18.85
2022-10-14T22:11:33.059Z,18.86
2022-10-14T22:14:02.854Z,18.85
2022-10-14T22:16:30.497Z,18.83
2022-10-14T22:19:01.097Z,18.73
2022-10-14T22:21:30.619Z,18.73
2022-10-14T22:23:58.975Z,18.73
2022-10-14T22:26:27.465Z,18.81
2022-10-14T22:29:02.389Z,18.78
2022-10-14T22:31:30.518Z,18.78
2022-10-14T22:33:58.652Z,18.72
2022-10-14T22:36:30.678Z,18.63
2022-10-14T22:38:58.926Z,18.69
2022-10-14T22:41:27.958Z,18.69
2022-10-14T22:43:59.493Z,18.72
2022-10-14T22:46:28.562Z,18.64
2022-10-14T22:48:56.923Z,18.69
2022-10-14T22:53:54.748Z,18.64
2022-10-14T22:56:25.582Z,18.75
2022-10-14T22:58:57.321Z,18.18
2022-10-14T23:01:26.123Z,18.66
2022-10-14T23:03:52.827Z,18.68
2022-10-14T23:06:19.611Z,18.72
2022-10-14T23:08:46.393Z,18.55
2022-10-14T23:11:16.098Z,18.65
2022-10-14T23:13:43.560Z,18.63
2022-10-14T23:16:16.971Z,18.60
2022-10-14T23:18:44.790Z,18.56
2022-10-14T23:21:15.502Z,18.32
2022-10-14T23:23:42.764Z,18.61
2022-10-14T23:26:11.998Z,18.58
2022-10-14T23:28:39.119Z,18.58
2022-10-14T23:31:15.081Z,18.52
2022-10-14T23:33:42.290Z,18.60
2022-10-14T23:36:11.388Z,18.58
2022-10-14T23:38:39.975Z,18.60
2022-10-14T23:41:08.146Z,18.54
2022-10-14T23:43:35.289Z,18.58
2022-10-14T23:46:02.721Z,18.59
2022-10-14T23:48:30.014Z,18.60
2022-10-14T23:50:57.357Z,18.61
2022-10-14T23:53:26.611Z,18.60
2022-10-14T23:55:54.729Z,18.59
2022-10-14T23:58:21.915Z,18.56
